createdAt,value
2022-10-28T00:00:29.962Z,16.74
2022-10-28T00:05:34.960Z,16.90
2022-10-28T00:10:37.546Z,16.74
2022-10-28T00:15:39.876Z,16.78
2022-10-28T00:20:42.225Z,17.26
2022-10-28T00:25:44.550Z,17.38
2022-10-28T00:30:47.152Z,16.88
2022-10-28T00:35:49.678Z,17.13
2022-10-28T00:40:52.094Z,17.33
2022-10-28T00:45:54.506Z,17.15
2022-10-28T00:50:57.125Z,17.36
2022-10-28T00:56:02.057Z,17.51
2022-10-28T01:01:04.794Z,17.92
2022-10-28T01:06:08.519Z,18.01
2022-10-28T01:11:49.076Z,18.07
2022-10-28T01:17:12.572Z,18.25
2022-10-28T01:22:52.968Z,18.17
2022-10-28T01:28:17.236Z,18.17
2022-10-28T01:33:31.383Z,18.05
2022-10-28T01:38:54.411Z,18.19
2022-10-28T01:44:05.948Z,18.38
2022-10-28T01:49:19.119Z,18.46
2022-10-28T01:54:28.252Z,18.61
2022-10-28T01:59:33.004Z,18.65
2022-10-28T02:04:35.373Z,18.64
2022-10-28T02:09:40.708Z,18.53
2022-10-28T02:15:01.684Z,18.41
2022-10-28T02:20:34.813Z,18.36
2022-10-28T02:25:45.171Z,18.45
2022-10-28T02:31:11.176Z,18.67
2022-10-28T02:36:17.397Z,18.70
2022-10-28T02:41:44.575Z,18.69
2022-10-28T02:46:50.444Z,18.76
2022-10-28T02:51:57.896Z,18.81
2022-10-28T02:57:09.983Z,18.72
2022-10-28T03:02:12.352Z,18.26
2022-10-28T03:07:14.822Z,18.40
2022-10-28T03:12:17.659Z,18.37
2022-10-28T03:17:20.166Z,18.65
2022-10-28T03:22:22.533Z,18.40
2022-10-28T03:27:24.895Z,17.82
2022-10-28T03:32:27.235Z,18.31
2022-10-28T03:37:29.570Z,18.61
2022-10-28T03:42:36.417Z,18.50
2022-10-28T03:47:41.317Z,18.30
2022-10-28T03:52:44.810Z,18.30
2022-10-28T03:57:47.341Z,17.89
2022-10-28T04:02:53.692Z,17.52
2022-10-28T04:07:56.180Z,17.28
2022-10-28T04:13:06.014Z,17.11
2022-10-28T04:18:08.418Z,17.27
2022-10-28T04:23:16.703Z,17.44
2022-10-28T04:28:19.302Z,17.97
2022-10-28T04:33:21.667Z,17.79
2022-10-28T04:43:27.675Z,17.89
2022-10-28T04:48:30.086Z,18.08
2022-10-28T04:53:32.454Z,17.68
2022-10-28T04:58:34.830Z,17.64
2022-10-28T05:03:37.591Z,17.54
2022-10-28T05:08:40.046Z,17.49
2022-10-28T05:13:42.512Z,17.54
2022-10-28T05:24:07.356Z,17.63
2022-10-28T05:29:09.682Z,18.02
2022-10-28T05:34:12.153Z,18.01
2022-10-28T05:39:14.466Z,17.89
2022-10-28T05:44:16.952Z,18.04
2022-10-28T05:49:20.506Z,18.39
2022-10-28T05:54:22.840Z,18.60
2022-10-28T05:59:25.160Z,18.44
2022-10-28T06:04:27.516Z,18.63
2022-10-28T06:09:29.880Z,18.13
2022-10-28T06:14:30.862Z,17.70
2022-10-28T06:19:33.223Z,17.63
2022-10-28T06:24:35.563Z,17.67
2022-10-28T06:29:38.384Z,17.67
2022-10-28T06:34:40.749Z,17.69
2022-10-28T06:39:44.314Z,17.79
2022-10-28T06:44:47.077Z,17.92
2022-10-28T06:49:51.499Z,18.03
2022-10-28T06:54:53.830Z,18.09
2022-10-28T06:59:56.247Z,18.22
2022-10-28T07:04:58.598Z,18.29
2022-10-28T07:10:01.204Z,18.31
2022-10-28T07:15:03.884Z,18.37
2022-10-28T07:20:06.889Z,18.41
2022-10-28T07:25:09.678Z,18.20
2022-10-28T07:30:12.708Z,18.15
2022-10-28T07:35:15.297Z,18.11
2022-10-28T07:40:18.299Z,17.89
2022-10-28T07:45:21.208Z,17.78
2022-10-28T07:50:23.691Z,17.82
2022-10-28T07:55:26.313Z,17.99
2022-10-28T08:00:28.735Z,18.24
2022-10-28T08:05:31.144Z,18.43
2022-10-28T08:10:33.480Z,18.44
2022-10-28T08:15:36.006Z,18.46
2022-10-28T08:20:38.507Z,18.51
2022-10-28T08:25:52.291Z,18.49
2022-10-28T08:31:08.290Z,18.53
2022-10-28T08:36:16.697Z,18.78
2022-10-28T08:41:40.229Z,19.31
2022-10-28T08:46:48.623Z,19.49
2022-10-28T08:52:01.602Z,19.33
2022-10-28T08:57:18.088Z,19.47
2022-10-28T09:02:49.878Z,19.80
2022-10-28T09:07:53.508Z,20.13
2022-10-28T09:13:12.276Z,20.30
2022-10-28T09:18:20.664Z,20.28
2022-10-28T09:23:35.655Z,20.24
2022-10-28T09:29:03.013Z,19.80
2022-10-28T09:34:29.711Z,19.56
2022-10-28T09:39:44.182Z,19.69
2022-10-28T09:44:58.062Z,19.73
2022-10-28T09:50:04.387Z,20.06
2022-10-28T09:55:20.029Z,20.62
2022-10-28T10:00:22.751Z,21.32
2022-10-28T10:05:26.704Z,21.65
2022-10-28T10:10:35.071Z,21.73
2022-10-28T10:15:39.664Z,21.80
2022-10-28T10:20:51.281Z,21.87
2022-10-28T10:26:06.808Z,21.98
2022-10-28T10:31:25.481Z,21.73
2022-10-28T10:36:29.150Z,21.67
2022-10-28T10:41:41.568Z,21.96
2022-10-28T10:46:46.363Z,22.00
2022-10-28T10:51:57.384Z,22.14
2022-10-28T10:57:15.187Z,22.18
2022-10-28T11:02:23.565Z,22.12
2022-10-28T11:07:28.335Z,22.38
2022-10-28T11:12:31.925Z,22.64
2022-10-28T11:17:35.198Z,22.56
2022-10-28T11:22:50.352Z,22.57
2022-10-28T11:28:04.704Z,22.46
2022-10-28T11:33:29.840Z,22.33
2022-10-28T11:39:07.968Z,22.08
2022-10-28T11:50:25.407Z,21.63
2022-10-28T11:55:39.303Z,21.42
2022-10-28T12:01:10.743Z,21.63
2022-10-28T12:06:20.373Z,21.74
2022-10-28T12:11:40.916Z,21.87
2022-10-28T12:16:56.864Z,22.09
2022-10-28T12:22:14.764Z,22.79
2022-10-28T12:27:30.962Z,23.32
2022-10-28T12:32:37.490Z,23.42
2022-10-28T12:37:55.311Z,23.61
2022-10-28T12:43:10.319Z,23.41
2022-10-28T12:48:37.956Z,23.27
2022-10-28T12:54:03.448Z,23.06
2022-10-28T12:59:28.487Z,22.97
2022-10-28T13:04:31.009Z,23.23
2022-10-28T13:09:57.555Z,22.93
2022-10-28T13:15:52.531Z,22.64
2022-10-28T13:21:24.729Z,22.57
2022-10-28T13:26:29.743Z,22.59
2022-10-28T13:31:39.363Z,22.56
2022-10-28T13:36:56.511Z,22.50
2022-10-28T13:42:16.104Z,22.46
2022-10-28T13:47:30.913Z,22.33
2022-10-28T13:52:44.127Z,22.28
2022-10-28T13:57:50.055Z,22.14
2022-10-28T14:02:58.626Z,22.06
2022-10-28T14:08:04.201Z,21.99
2022-10-28T14:13:07.099Z,22.23
2022-10-28T14:23:43.353Z,23.31
2022-10-28T14:28:46.030Z,23.28
2022-10-28T14:33:54.577Z,23.34
2022-10-28T14:39:18.565Z,23.20
2022-10-28T14:44:32.954Z,23.12
2022-10-28T14:49:38.303Z,22.96
2022-10-28T14:54:55.938Z,23.17
2022-10-28T15:00:04.917Z,23.20
2022-10-28T15:05:18.432Z,23.18
2022-10-28T15:10:28.222Z,23.22
2022-10-28T15:15:33.552Z,23.19
2022-10-28T15:20:36.656Z,23.23
2022-10-28T15:25:39.075Z,23.30
2022-10-28T15:31:04.642Z,23.35
2022-10-28T15:36:31.826Z,23.34
2022-10-28T15:41:45.664Z,23.45
2022-10-28T15:46:50.280Z,23.37
2022-10-28T15:52:17.332Z,23.38
2022-10-28T15:57:26.762Z,23.31
2022-10-28T16:03:24.426Z,23.26
2022-10-28T16:14:40.727Z,23.18
2022-10-28T16:20:05.655Z,23.14
2022-10-28T16:25:16.373Z,22.95
2022-10-28T16:30:19.102Z,22.84
2022-10-28T16:35:24.259Z,22.78
2022-10-28T16:45:51.017Z,22.64
2022-10-28T16:51:12.495Z,22.59
2022-10-28T16:56:16.762Z,22.57
2022-10-28T17:01:21.477Z,22.52
2022-10-28T17:06:23.969Z,22.45
2022-10-28T17:11:26.413Z,22.31
2022-10-28T17:16:28.773Z,22.13
2022-10-28T17:21:31.196Z,22.04
2022-10-28T17:26:33.542Z,21.87
2022-10-28T17:31:35.870Z,21.77
2022-10-28T17:36:38.239Z,21.68
2022-10-28T17:41:40.598Z,21.54
2022-10-28T17:46:43.175Z,21.50
2022-10-28T17:51:45.550Z,21.44
2022-10-28T17:56:49.102Z,21.41
2022-10-28T18:01:51.929Z,21.30
2022-10-28T18:06:55.756Z,20.86
2022-10-28T18:11:59.759Z,20.87
2022-10-28T18:17:02.155Z,20.75
2022-10-28T18:22:04.748Z,20.66
2022-10-28T18:27:07.118Z,20.71
2022-10-28T18:32:09.506Z,20.59
2022-10-28T18:37:11.959Z,20.45
2022-10-28T18:42:17.789Z,20.56
2022-10-28T18:47:23.275Z,20.67
2022-10-28T18:52:25.765Z,20.72
2022-10-28T18:57:28.098Z,20.71
2022-10-28T19:02:30.875Z,20.77
2022-10-28T19:07:33.421Z,20.78
2022-10-28T19:12:40.764Z,20.65
2022-10-28T19:17:46.572Z,20.63
2022-10-28T19:22:49.557Z,20.54
2022-10-28T19:27:54.340Z,20.56
2022-10-28T19:32:57.121Z,20.57
2022-10-28T19:37:59.657Z,20.48
2022-10-28T19:43:02.002Z,20.42
2022-10-28T19:48:04.585Z,20.35
2022-10-28T19:53:06.959Z,20.34
2022-10-28T19:58:09.377Z,20.40
2022-10-28T20:03:11.756Z,20.44
2022-10-28T20:08:14.380Z,20.30
2022-10-28T20:13:16.854Z,20.07
2022-10-28T20:18:19.370Z,20.00
2022-10-28T20:23:22.078Z,20.02
2022-10-28T20:28:24.726Z,19.96
2022-10-28T20:33:28.072Z,19.99
2022-10-28T20:38:32.068Z,20.04
2022-10-28T20:43:37.492Z,20.23
2022-10-28T20:48:40.198Z,20.08
2022-10-28T20:53:43.030Z,19.78
2022-10-28T20:58:45.584Z,19.60
2022-10-28T21:03:48.435Z,19.38
2022-10-28T21:08:51.134Z,19.13
2022-10-28T21:13:56.175Z,18.89
2022-10-28T21:19:01.975Z,18.77
2022-10-28T21:24:04.947Z,18.75
2022-10-28T21:29:07.346Z,18.84
2022-10-28T21:34:09.703Z,18.65
2022-10-28T21:39:12.081Z,18.66
2022-10-28T21:44:14.466Z,18.34
2022-10-28T21:49:16.838Z,17.94
2022-10-28T21:54:19.802Z,17.77
2022-10-28T21:59:22.321Z,18.09
2022-10-28T22:04:24.748Z,17.95
2022-10-28T22:09:27.110Z,17.71
2022-10-28T22:14:30.095Z,17.75
2022-10-28T22:19:32.584Z,17.95
2022-10-28T22:24:34.961Z,17.80
2022-10-28T22:29:37.784Z,17.46
2022-10-28T22:34:40.290Z,17.30
2022-10-28T22:39:42.645Z,17.50
2022-10-28T22:44:44.979Z,17.21
2022-10-28T22:49:47.325Z,16.98
2022-10-28T22:54:49.936Z,16.98
2022-10-28T22:59:52.449Z,16.87
2022-10-28T23:04:54.878Z,16.83
2022-10-28T23:09:58.862Z,16.81
2022-10-28T23:15:01.260Z,16.64
2022-10-28T23:20:04.314Z,16.99
2022-10-28T23:25:07.256Z,17.30
2022-10-28T23:30:12.373Z,16.70
2022-10-28T23:35:14.824Z,16.74
2022-10-28T23:40:17.272Z,17.06
2022-10-28T23:45:19.847Z,17.32
2022-10-28T23:50:22.476Z,17.03
2022-10-28T23:55:24.830Z,16.65
